Bookmark and Share
Track history (hours):
 

Pacific Fantasy

Last reported at 2014-Apr-09 23:33 UTC. Time now 2014-Apr-17 03:49 UTC.
Position N 36°57' E 011°60'.

Length 180 m; draft 6.5 m.

Type: Cargo ship. MMSI: 636013744.

NotesDate/timePositionNaut miles runAvg speedWind from/ knotsBaromVisibWave heightAir tempDewpointWater temp
2014-Apr-09 23:33N 36°57' E 011°60'1212.1
2014-Apr-09 22:33N 37°03' E 011°47'1311.9
2014-Apr-09 21:29N 37°10' E 011°34'1112.1
2014-Apr-09 20:33N 37°16' E 011°21'1212.3
2014-Apr-09 19:33N 37°23' E 011°08'1212.2
2014-Apr-09 18:33N 37°27' E 010°54'1312.8
2014-Apr-09 17:33N 37°30' E 010°38'1313.2
2014-Apr-09 16:33N 37°33' E 010°22'1313.1
2014-Apr-09 15:33N 37°34' E 010°06'1312.9
2014-Apr-09 14:33N 37°31' E 009°50'6912.6
2014-Apr-09 09:05N 37°16' E 008°25'16913.1
2014-Apr-08 20:11N 37°11' E 004°53'3212.3
2014-Apr-08 17:33N 37°10' E 004°12'1313.2
2014-Apr-08 16:34N 37°09' E 003°56'1513.2
2014-Apr-08 15:23N 37°06' E 003°37'1113.4
2014-Apr-08 14:33N 37°04' E 003°23'1413.6
2014-Apr-08 13:34N 37°01' E 003°06'1313.4
2014-Apr-08 12:33N 36°58' E 002°50'1312.8
2014-Apr-08 11:33N 36°56' E 002°34'1413.3
2014-Apr-08 10:30N 36°53' E 002°17'49011.9
2014-Apr-06 17:29N 36°13' W 007°51'5811.3
2014-Apr-06 12:22N 36°30' W 008°60'2111.0
2014-Apr-06 10:26N 36°39' W 009°24'1111.5
2014-Apr-06 09:28N 36°47' W 009°33'1311.6
2014-Apr-06 08:23N 36°59' W 009°37'1011.6
2014-Apr-06 07:31N 37°09' W 009°40'3811.5
2014-Apr-06 04:14N 37°46' W 009°50'1211.4
2014-Apr-06 03:12N 37°57' W 009°54'4511.9
2014-Apr-05 23:26N 38°41' W 010°07'  
2014-Apr-02 15:21N 50°24' W 000°43'1114.1
2014-Apr-02 14:33N 50°27' W 000°26'1513.0
2014-Apr-02 13:26N 50°31' W 000°04'1011.5
2014-Apr-02 12:33N 50°33' E 000°12'1010.3
2014-Apr-02 11:33N 50°36' E 000°27'10 9.8
2014-Apr-02 10:33N 50°39' E 000°42'1110.6
2014-Apr-02 09:33N 50°44' E 000°57'1312.7
2014-Apr-02 08:33N 50°52' E 001°13'1514.6
2014-Apr-02 07:34N 51°02' E 001°29'1413.6
2014-Apr-02 06:33N 51°12' E 001°44'1211.7
2014-Apr-02 05:31N 51°22' E 001°54'1010.7
2014-Apr-02 04:33N 51°31' E 002°04'10 9.9
2014-Apr-02 03:31N 51°39' E 002°14'11 9.7
2014-Apr-02 02:24N 51°47' E 002°26'910.3
2014-Apr-02 01:32N 51°54' E 002°35'5112.6
2014-Apr-01 21:30N 52°40' E 003°10'13811.6
2014-Apr-01 09:34N 54°40' E 005°05'1211.4
2014-Apr-01 08:32N 54°49' E 005°17'1211.4
2014-Apr-01 07:29N 54°59' E 005°29'1311.5
2014-Apr-01 06:21N 55°10' E 005°42'1011.7
2014-Apr-01 05:32N 55°18' E 005°52'7111.9
2014-Mar-31 23:33N 56°15' E 007°06'8611.6
2014-Mar-31 16:10N 57°22' E 008°45'5311.5
2014-Mar-31 11:33N 57°49' E 010°11'1312.9
2014-Mar-31 10:33N 57°49' E 010°35'1211.7
2014-Mar-31 09:34N 57°44' E 010°55'1212.1
2014-Mar-31 08:33N 57°35' E 011°12'1212.0
2014-Mar-31 07:33N 57°27' E 011°28'1212.2
2014-Mar-31 06:33N 57°15' E 011°35'1211.8
2014-Mar-31 05:30N 57°04' E 011°43'1111.5
2014-Mar-31 04:33N 56°54' E 011°49'1110.6
2014-Mar-31 03:32N 56°43' E 011°52'1211.7
2014-Mar-31 02:32N 56°33' E 011°41'  

Dump ship's entire track history

sailing weather and tide predictions

Pacific Fantasy — A8MV6 — position and weather